TFM - Tactical Decision Aid (Experimental) INFO Settings
ID: Runway Winds: CIG/VIS Threshold: METAR Board: Map:

KIAD - Washington-Dulles Intl

Updated at: 0840 UTC 19 Jan 2017
Latest TAF at: 0525 UTC 19 Jan 2017

TAF Board

Time0752Z19/09Z19/10Z19/11Z19/12Z19/13Z19/14Z19/15Z19/16Z19/17Z19/18Z19/19Z19/20Z19/21Z
TypeOBSPRVLPRVLPRVLPRVLPRVLPRVLPRVLPRVLPRVLPRVLPRVLPRVLPRVL
VIS10>6>6>6>6>6>6>6>6>6>6>6>6>6
CIG313030----------------------
CoverBKNBKNBKNSCTSCTSCTSCTSCTSCTSCTSCTSCTSCTSCT
FltCatVFRMVFRMVFRVFRVFRVFRVFRVFRVFRVFRVFRVFRVFRVFR
WX----------------------------
WDir310310310310310310310310310310310310310310
WSpd64444444444444
WGst----------------------------
TAF
KIAD 190525Z 1906/2012 31004KT P6SM BKN030
  FM191100 31004KT P6SM SCT035
  FM192200 24004KT P6SM FEW030
  FM200000 VRB03KT P6SM FEW250
  FM200900 00000KT P6SM BKN060


METAR
KIAD 190752Z 31006KT 10SM BKN031 BKN250 06/01 A3009 RMK AO2 SLP190 T00560011

TAF/METAR Board Legend

Potential Impact
  None Marginal Slight Moderate High
Visibility (sm) >5 3≤X≤5 1≤X<3 0.5≤X<1 <0.5
Ceiling (100 ft) >30 10≤X≤30 4≤X<10 2≤X<4 <2
Wind Speed (kt) <10 10≤X<20 20≤X<30 ≥30
Wind Gust (kt) <15 15≤X<25 25≤X<35 ≥35
Weather No Wx Reported VCTS -TS,-FZRA TS,FZRA +TS,+FZRA




Page loaded:  08:40 UTC  |   12:40 AM Pacific  |   01:40 AM Mountain  |   02:40 AM Central  |   03:40 AM Eastern